createdAt,value
2019-04-29T00:01:53.733Z,100.00
2019-04-29T00:04:58.898Z,99.80
2019-04-29T00:08:04.120Z,99.45
2019-04-29T00:11:09.367Z,99.65
2019-04-29T00:14:14.711Z,100.00
2019-04-29T00:17:29.671Z,100.00
2019-04-29T00:20:42.313Z,100.00
2019-04-29T00:23:47.466Z,100.00
2019-04-29T00:26:52.790Z,100.00
2019-04-29T00:29:57.978Z,100.00
2019-04-29T00:33:03.319Z,100.00
2019-04-29T00:36:08.482Z,100.00
2019-04-29T00:39:32.426Z,100.00
2019-04-29T00:43:02.473Z,100.00
2019-04-29T00:46:08.000Z,100.00
2019-04-29T00:49:13.277Z,100.00
2019-04-29T00:52:18.524Z,100.00
2019-04-29T00:55:27.096Z,100.00
2019-04-29T00:58:32.298Z,100.00
2019-04-29T01:01:37.411Z,99.83
2019-04-29T01:04:42.509Z,99.92
2019-04-29T01:07:47.679Z,100.00
2019-04-29T01:10:52.991Z,100.00
2019-04-29T01:13:58.119Z,100.00
2019-04-29T01:17:03.251Z,100.00
2019-04-29T01:20:08.941Z,100.00
2019-04-29T01:23:14.101Z,100.00
2019-04-29T01:26:36.919Z,100.00
2019-04-29T01:29:42.212Z,100.00
2019-04-29T01:32:47.366Z,100.00
2019-04-29T01:35:57.885Z,100.00
2019-04-29T01:39:05.645Z,100.00
2019-04-29T01:42:21.948Z,100.00
2019-04-29T01:45:27.113Z,100.00
2019-04-29T01:48:32.306Z,100.00
2019-04-29T01:51:37.432Z,100.00
2019-04-29T01:54:42.578Z,100.00
2019-04-29T01:57:47.744Z,100.00
2019-04-29T02:00:52.893Z,100.00
2019-04-29T02:03:58.054Z,100.00
2019-04-29T02:07:03.247Z,100.00
2019-04-29T02:10:19.393Z,100.00
2019-04-29T02:13:24.508Z,100.00
2019-04-29T02:16:29.689Z,100.00
2019-04-29T02:19:34.826Z,100.00
2019-04-29T02:22:45.282Z,100.00
2019-04-29T02:25:50.532Z,100.00
2019-04-29T02:28:55.695Z,100.00
2019-04-29T02:32:00.945Z,100.00
2019-04-29T02:35:06.177Z,100.00
2019-04-29T02:38:17.787Z,100.00
2019-04-29T02:41:35.008Z,100.00
2019-04-29T02:44:40.172Z,100.00
2019-04-29T02:47:45.393Z,100.00
2019-04-29T02:50:50.517Z,100.00
2019-04-29T02:53:55.737Z,100.00
2019-04-29T02:57:06.212Z,100.00
2019-04-29T03:00:33.727Z,100.00
2019-04-29T03:04:03.716Z,100.00
2019-04-29T03:07:08.974Z,100.00
2019-04-29T03:10:14.382Z,100.00
2019-04-29T03:13:19.469Z,100.00
2019-04-29T03:16:24.627Z,100.00
2019-04-29T03:19:34.425Z,100.00
2019-04-29T03:22:40.674Z,100.00
2019-04-29T03:25:45.834Z,100.00
2019-04-29T03:28:51.184Z,100.00
2019-04-29T03:31:57.845Z,100.00
2019-04-29T03:35:03.081Z,100.00
2019-04-29T03:38:08.268Z,100.00
2019-04-29T03:41:13.440Z,100.00
2019-04-29T03:44:18.655Z,100.00
2019-04-29T03:47:23.803Z,100.00
2019-04-29T03:50:29.062Z,100.00
2019-04-29T03:53:34.276Z,100.00
2019-04-29T03:56:40.087Z,100.00
2019-04-29T03:59:45.239Z,100.00
2019-04-29T04:02:59.187Z,100.00
2019-04-29T04:06:29.612Z,100.00
2019-04-29T04:09:35.781Z,100.00
2019-04-29T04:12:41.153Z,100.00
2019-04-29T04:15:46.404Z,100.00
2019-04-29T04:18:57.062Z,100.00
2019-04-29T04:22:02.317Z,100.00
2019-04-29T04:25:07.538Z,100.00
2019-04-29T04:28:12.667Z,100.00
2019-04-29T04:31:17.801Z,100.00
2019-04-29T04:34:23.078Z,100.00
2019-04-29T04:37:28.211Z,100.00
2019-04-29T04:40:40.791Z,100.00
2019-04-29T04:43:46.042Z,100.00
2019-04-29T04:46:51.166Z,99.82
2019-04-29T04:49:56.344Z,99.76
2019-04-29T04:53:03.138Z,99.53
2019-04-29T04:56:08.287Z,98.80
2019-04-29T04:59:13.397Z,98.26
2019-04-29T05:02:18.521Z,97.10
2019-04-29T05:05:23.708Z,96.07
2019-04-29T05:08:28.899Z,93.92
2019-04-29T05:11:34.030Z,92.76
2019-04-29T05:14:39.218Z,91.27
2019-04-29T05:17:44.473Z,88.32
2019-04-29T05:20:49.687Z,88.00
2019-04-29T05:23:54.799Z,85.65
2019-04-29T05:26:59.913Z,86.48
2019-04-29T05:30:05.775Z,84.31
2019-04-29T05:33:10.909Z,82.61
2019-04-29T05:36:29.751Z,83.10
2019-04-29T05:39:37.635Z,83.81
2019-04-29T05:42:42.806Z,83.27
2019-04-29T05:45:54.959Z,84.18
2019-04-29T05:49:02.333Z,82.76
2019-04-29T05:52:15.255Z,83.80
2019-04-29T05:55:20.533Z,83.08
2019-04-29T05:58:25.643Z,82.79
2019-04-29T06:01:31.534Z,83.04
2019-04-29T06:04:36.691Z,82.54
2019-04-29T06:07:41.910Z,81.69
2019-04-29T06:10:47.080Z,82.68
2019-04-29T06:13:52.239Z,82.05
2019-04-29T06:17:02.463Z,80.56
2019-04-29T06:20:04.593Z,79.28
2019-04-29T06:23:09.724Z,79.96
2019-04-29T06:26:15.930Z,79.01
2019-04-29T06:29:21.069Z,78.90
2019-04-29T06:32:26.469Z,78.80
2019-04-29T06:35:31.657Z,77.39
2019-04-29T06:38:36.893Z,76.37
2019-04-29T06:41:45.513Z,75.74
2019-04-29T06:44:50.498Z,75.96
2019-04-29T06:47:55.593Z,75.51
2019-04-29T06:51:00.728Z,76.90
2019-04-29T06:54:05.932Z,75.88
2019-04-29T06:57:11.161Z,74.31
2019-04-29T07:00:21.682Z,73.31
2019-04-29T07:03:25.541Z,73.73
2019-04-29T07:06:30.059Z,74.01
2019-04-29T07:09:35.161Z,72.53
2019-04-29T07:12:42.791Z,68.07
2019-04-29T07:15:48.903Z,67.78
2019-04-29T07:18:54.173Z,68.77
2019-04-29T07:21:59.383Z,68.02
2019-04-29T07:25:04.725Z,67.01
2019-04-29T07:28:13.751Z,66.17
2019-04-29T07:31:17.890Z,66.29
2019-04-29T07:34:23.025Z,68.56
2019-04-29T07:37:29.889Z,70.09
2019-04-29T07:40:38.702Z,69.24
2019-04-29T07:43:43.044Z,68.89
2019-04-29T07:46:56.769Z,68.52
2019-04-29T07:49:58.876Z,67.39
2019-04-29T07:53:04.036Z,67.58
2019-04-29T07:56:09.280Z,65.95
2019-04-29T07:59:14.435Z,66.51
2019-04-29T08:02:19.540Z,67.03
2019-04-29T08:05:24.854Z,65.04
2019-04-29T08:08:32.064Z,63.69
2019-04-29T08:11:37.676Z,65.42
2019-04-29T08:14:43.807Z,65.32
2019-04-29T08:17:51.393Z,64.12
2019-04-29T08:20:55.807Z,65.63
2019-04-29T08:24:00.953Z,61.80
2019-04-29T08:27:06.120Z,61.52
2019-04-29T08:30:12.799Z,61.84
2019-04-29T08:33:18.140Z,60.33
2019-04-29T08:36:23.290Z,58.22
2019-04-29T08:39:29.323Z,56.31
2019-04-29T08:42:41.853Z,58.32
2019-04-29T08:45:49.502Z,53.10
2019-04-29T08:48:54.709Z,51.24
2019-04-29T08:52:00.880Z,50.63
2019-04-29T08:55:06.570Z,48.58
2019-04-29T08:58:12.911Z,48.93
2019-04-29T09:01:18.102Z,48.13
2019-04-29T09:04:23.265Z,50.15
2019-04-29T09:07:28.399Z,49.40
2019-04-29T09:10:36.774Z,47.45
2019-04-29T09:13:40.314Z,45.90
2019-04-29T09:16:45.491Z,47.17
2019-04-29T09:19:50.775Z,48.61
2019-04-29T09:23:00.520Z,46.13
2019-04-29T09:26:24.715Z,45.66
2019-04-29T09:29:36.614Z,45.54
2019-04-29T09:32:41.911Z,45.94
2019-04-29T09:35:47.098Z,47.85
2019-04-29T09:38:52.238Z,46.43
2019-04-29T09:42:19.420Z,48.95
2019-04-29T09:45:30.988Z,49.28
2019-04-29T09:48:36.175Z,48.31
2019-04-29T09:51:41.405Z,48.50
2019-04-29T09:54:46.588Z,49.09
2019-04-29T09:57:51.899Z,49.70
2019-04-29T10:01:21.977Z,47.26
2019-04-29T10:04:56.446Z,49.18
2019-04-29T10:07:56.066Z,47.69
2019-04-29T10:11:01.259Z,48.05
2019-04-29T10:14:06.570Z,48.60
2019-04-29T10:17:36.743Z,48.57
2019-04-29T10:20:54.259Z,49.08
2019-04-29T10:23:59.472Z,49.53
2019-04-29T10:27:07.354Z,49.47
2019-04-29T10:30:13.898Z,49.25
2019-04-29T10:33:22.819Z,49.08
2019-04-29T10:36:26.539Z,49.63
2019-04-29T10:39:49.455Z,50.76
2019-04-29T10:43:17.889Z,50.42
2019-04-29T10:46:40.686Z,50.85
2019-04-29T10:49:49.942Z,51.02
2019-04-29T10:52:56.136Z,50.84
2019-04-29T10:56:05.637Z,48.70
2019-04-29T10:59:11.168Z,47.79
2019-04-29T11:02:34.574Z,47.48
2019-04-29T11:05:59.975Z,48.24
2019-04-29T11:09:00.352Z,48.03
2019-04-29T11:12:09.951Z,48.56
2019-04-29T11:15:16.786Z,48.86
2019-04-29T11:18:23.214Z,47.23
2019-04-29T11:21:29.356Z,46.80
2019-04-29T11:24:50.079Z,47.94
2019-04-29T11:27:56.298Z,48.60
2019-04-29T11:31:02.614Z,49.49
2019-04-29T11:34:33.537Z,48.43
2019-04-29T11:37:38.867Z,48.89
2019-04-29T11:40:44.555Z,49.44
2019-04-29T11:43:51.093Z,49.38
2019-04-29T11:46:56.755Z,49.15
2019-04-29T11:50:13.721Z,48.82
2019-04-29T11:53:18.867Z,48.10
2019-04-29T11:56:24.142Z,48.14
2019-04-29T11:59:40.050Z,49.49
2019-04-29T12:02:54.308Z,47.54
2019-04-29T12:06:02.266Z,47.79
2019-04-29T12:09:08.366Z,46.68
2019-04-29T12:12:15.199Z,47.18
2019-04-29T12:15:37.161Z,47.62
2019-04-29T12:18:49.628Z,48.77
2019-04-29T12:21:55.301Z,48.62
2019-04-29T12:25:00.510Z,49.48
2019-04-29T12:28:18.808Z,49.27
2019-04-29T12:31:20.234Z,49.66
2019-04-29T12:34:48.461Z,49.77
2019-04-29T12:38:11.433Z,49.05
2019-04-29T12:41:47.678Z,52.39
2019-04-29T12:45:03.610Z,53.57
2019-04-29T12:48:09.105Z,57.32
2019-04-29T12:51:16.958Z,61.97
2019-04-29T12:54:21.153Z,67.59
2019-04-29T12:57:26.352Z,72.85
2019-04-29T13:00:46.343Z,74.86
2019-04-29T13:04:02.067Z,75.29
2019-04-29T13:07:24.972Z,76.55
2019-04-29T13:10:44.223Z,80.03
2019-04-29T13:13:51.251Z,77.52
2019-04-29T13:17:14.444Z,75.25
2019-04-29T13:20:15.123Z,77.05
2019-04-29T13:23:33.209Z,79.57
2019-04-29T13:26:28.611Z,80.07
2019-04-29T13:29:36.202Z,81.83
2019-04-29T13:32:41.123Z,81.06
2019-04-29T13:35:48.363Z,79.59
2019-04-29T13:38:53.387Z,80.59
2019-04-29T13:42:02.852Z,79.21
2019-04-29T13:45:12.990Z,77.04
2019-04-29T13:48:25.978Z,80.51
2019-04-29T13:51:35.676Z,79.40
2019-04-29T13:54:42.395Z,79.73
2019-04-29T13:57:49.111Z,80.07
2019-04-29T14:01:03.652Z,80.42
2019-04-29T14:04:24.180Z,80.19
2019-04-29T14:07:26.686Z,78.28
2019-04-29T14:10:34.719Z,78.15
2019-04-29T14:13:43.632Z,80.91
2019-04-29T14:16:47.547Z,81.07
2019-04-29T14:19:56.953Z,80.55
2019-04-29T14:23:00.846Z,77.97
2019-04-29T14:26:06.050Z,81.76
2019-04-29T14:29:11.276Z,79.30
2019-04-29T14:32:18.176Z,78.96
2019-04-29T14:35:48.347Z,82.97
2019-04-29T14:38:53.610Z,83.78
2019-04-29T14:42:02.459Z,82.97
2019-04-29T14:45:26.775Z,82.04
2019-04-29T14:48:42.738Z,81.91
2019-04-29T14:51:42.884Z,79.67
2019-04-29T14:54:48.054Z,81.06
2019-04-29T14:57:53.220Z,81.00
2019-04-29T15:01:16.134Z,79.89
2019-04-29T15:04:23.716Z,82.12
2019-04-29T15:07:36.032Z,83.56
2019-04-29T15:10:42.056Z,84.15
2019-04-29T15:13:49.139Z,83.81
2019-04-29T15:17:00.646Z,85.10
2019-04-29T15:20:15.445Z,82.04
2019-04-29T15:23:28.275Z,80.73
2019-04-29T15:26:27.465Z,80.62
2019-04-29T15:29:33.563Z,81.38
2019-04-29T15:32:38.805Z,80.12
2019-04-29T15:35:44.106Z,80.73
2019-04-29T15:39:07.932Z,80.70
2019-04-29T15:41:57.252Z,80.50
2019-04-29T15:45:02.437Z,81.85
2019-04-29T15:48:10.506Z,80.82
2019-04-29T15:51:15.850Z,81.15
2019-04-29T15:54:21.022Z,83.13
2019-04-29T15:57:26.480Z,82.49
2019-04-29T16:00:37.932Z,82.69
2019-04-29T16:03:38.944Z,85.87
2019-04-29T16:07:02.453Z,87.29
2019-04-29T16:10:32.888Z,88.35
2019-04-29T16:13:38.109Z,88.21
2019-04-29T16:16:43.277Z,90.28
2019-04-29T16:19:48.426Z,92.56
2019-04-29T16:22:54.084Z,92.17
2019-04-29T16:26:00.563Z,90.32
2019-04-29T16:29:12.483Z,90.47
2019-04-29T16:32:16.668Z,89.41
2019-04-29T16:35:23.639Z,90.72
2019-04-29T16:38:28.740Z,89.67
2019-04-29T16:42:02.189Z,87.29
2019-04-29T16:45:12.228Z,86.60
2019-04-29T16:48:16.145Z,90.22
2019-04-29T16:51:21.346Z,87.87
2019-04-29T16:54:28.503Z,86.30
2019-04-29T16:57:33.511Z,86.04
2019-04-29T17:00:39.965Z,86.94
2019-04-29T17:03:45.236Z,86.66
2019-04-29T17:10:20.343Z,86.07
2019-04-29T17:13:25.680Z,87.06
2019-04-29T17:16:30.844Z,86.54
2019-04-29T17:19:35.943Z,85.43
2019-04-29T17:22:43.215Z,85.23
2019-04-29T17:25:47.959Z,86.48
2019-04-29T17:29:37.273Z,87.08
2019-04-29T17:32:54.105Z,85.89
2019-04-29T17:35:15.990Z,86.05
2019-04-29T17:35:59.743Z,86.79
2019-04-29T17:39:06.811Z,87.36
2019-04-29T17:42:12.855Z,86.09
2019-04-29T17:45:30.583Z,87.30
2019-04-29T17:48:38.374Z,86.50
2019-04-29T17:51:45.880Z,86.31
2019-04-29T17:54:55.051Z,86.44
2019-04-29T17:58:08.545Z,85.93
2019-04-29T18:01:28.953Z,86.37
2019-04-29T18:04:49.659Z,87.52
2019-04-29T18:08:23.901Z,87.96
2019-04-29T18:11:30.260Z,88.39
2019-04-29T18:14:40.322Z,88.61
2019-04-29T18:17:42.456Z,88.23
2019-04-29T18:21:19.206Z,87.62
2019-04-29T18:24:52.562Z,87.72
2019-04-29T18:28:00.323Z,88.17
2019-04-29T18:31:06.494Z,88.95
2019-04-29T18:34:11.693Z,88.14
2019-04-29T18:37:18.519Z,88.84
2019-04-29T18:40:25.742Z,88.84
2019-04-29T18:43:30.574Z,89.74
2019-04-29T18:46:35.792Z,88.24
2019-04-29T18:49:40.992Z,88.72
2019-04-29T18:52:46.179Z,89.13
2019-04-29T18:55:51.569Z,90.15
2019-04-29T18:58:56.710Z,92.10
2019-04-29T19:02:07.715Z,93.30
2019-04-29T19:05:20.004Z,94.38
2019-04-29T19:08:28.695Z,94.48
2019-04-29T19:11:32.873Z,94.31
2019-04-29T19:14:38.798Z,95.56
2019-04-29T19:17:46.580Z,95.75
2019-04-29T19:20:52.939Z,95.57
2019-04-29T19:24:00.685Z,94.90
2019-04-29T19:27:09.446Z,96.04
2019-04-29T19:30:14.280Z,94.29
2019-04-29T19:33:20.115Z,92.26
2019-04-29T19:36:25.320Z,92.84
2019-04-29T19:39:30.594Z,91.66
2019-04-29T19:42:39.642Z,91.21
2019-04-29T19:45:44.699Z,90.66
2019-04-29T19:48:49.645Z,90.86
2019-04-29T19:51:55.542Z,91.09
2019-04-29T19:55:01.550Z,92.00
2019-04-29T19:58:11.982Z,92.51
2019-04-29T20:01:26.556Z,94.25
2019-04-29T20:04:32.153Z,94.66
2019-04-29T20:07:42.367Z,94.32
2019-04-29T20:10:49.735Z,93.24
2019-04-29T20:14:02.087Z,92.95
2019-04-29T20:17:20.477Z,93.86
2019-04-29T20:20:50.886Z,95.01
2019-04-29T20:23:56.297Z,94.25
2019-04-29T20:27:01.612Z,92.99
2019-04-29T20:30:15.988Z,92.05
2019-04-29T20:33:16.114Z,91.52
2019-04-29T20:36:33.068Z,92.74
2019-04-29T20:39:28.255Z,93.84
2019-04-29T20:42:35.651Z,93.75
2019-04-29T20:45:40.689Z,95.24
2019-04-29T20:48:50.015Z,94.27
2019-04-29T20:51:56.692Z,93.57
2019-04-29T20:55:02.787Z,91.19
2019-04-29T20:58:08.249Z,91.94
2019-04-29T21:01:19.993Z,92.80
2019-04-29T21:04:33.784Z,94.14
2019-04-29T21:07:32.294Z,91.87
2019-04-29T21:10:37.829Z,92.14
2019-04-29T21:13:55.974Z,94.05
2019-04-29T21:17:02.312Z,94.92
2019-04-29T21:20:05.557Z,95.36
2019-04-29T21:23:10.901Z,95.35
2019-04-29T21:26:16.065Z,96.19
2019-04-29T21:29:21.202Z,95.83
2019-04-29T21:32:30.501Z,96.19
2019-04-29T21:35:43.057Z,96.55
2019-04-29T21:39:07.258Z,97.36
2019-04-29T21:42:35.511Z,97.11
2019-04-29T21:45:39.816Z,96.89
2019-04-29T21:48:43.626Z,97.07
2019-04-29T21:51:49.922Z,97.04
2019-04-29T21:54:57.005Z,97.76
2019-04-29T21:58:01.945Z,97.74
2019-04-29T22:01:07.920Z,97.92
2019-04-29T22:04:13.373Z,98.48
2019-04-29T22:07:19.103Z,98.36
2019-04-29T22:10:28.876Z,99.19
2019-04-29T22:13:35.675Z,99.19
2019-04-29T22:16:38.268Z,99.23
2019-04-29T22:19:45.033Z,98.91
2019-04-29T22:22:50.365Z,97.88
2019-04-29T22:25:56.740Z,98.96
2019-04-29T22:29:03.525Z,99.76
2019-04-29T22:32:14.431Z,100.00
2019-04-29T22:35:16.563Z,100.00
2019-04-29T22:38:21.884Z,100.00
2019-04-29T22:41:48.757Z,100.00
2019-04-29T22:44:57.318Z,98.78
2019-04-29T22:48:12.155Z,98.50
2019-04-29T22:51:10.147Z,99.16
2019-04-29T22:54:17.640Z,99.60
2019-04-29T22:57:22.900Z,99.76
2019-04-29T23:00:32.693Z,99.93
2019-04-29T23:03:38.731Z,100.00
2019-04-29T23:06:47.916Z,100.00
2019-04-29T23:09:51.049Z,100.00
2019-04-29T23:12:57.531Z,100.00
2019-04-29T23:16:03.855Z,100.00
2019-04-29T23:19:09.858Z,100.00
2019-04-29T23:22:29.059Z,100.00
2019-04-29T23:25:38.422Z,100.00
2019-04-29T23:28:45.651Z,100.00
2019-04-29T23:31:50.501Z,100.00
2019-04-29T23:34:57.272Z,100.00
2019-04-29T23:38:04.264Z,100.00
2019-04-29T23:41:09.388Z,100.00
2019-04-29T23:44:14.587Z,100.00
2019-04-29T23:47:19.858Z,100.00
2019-04-29T23:50:27.880Z,100.00
2019-04-29T23:53:31.859Z,100.00
2019-04-29T23:56:48.263Z,100.00
